sensor_id;sensor_type;location;lat;lon;timestamp;pressure;altitude;pressure_sealevel;temperature;humidity
9091;BME280;4581;42.416;25.598;2023-09-19T00:00:26;98795.59;;;18.41;76.62
9091;BME280;4581;42.416;25.598;2023-09-19T00:02:55;98800.88;;;18.36;76.65
9091;BME280;4581;42.416;25.598;2023-09-19T00:05:26;98802.94;;;18.41;76.93
9091;BME280;4581;42.416;25.598;2023-09-19T00:07:57;98787.63;;;18.40;76.48
9091;BME280;4581;42.416;25.598;2023-09-19T00:10:28;98792.25;;;18.39;76.08
9091;BME280;4581;42.416;25.598;2023-09-19T00:12:58;98786.19;;;18.37;75.44
9091;BME280;4581;42.416;25.598;2023-09-19T00:15:40;98783.47;;;18.31;75.56
9091;BME280;4581;42.416;25.598;2023-09-19T00:18:07;98781.38;;;18.33;76.61
9091;BME280;4581;42.416;25.598;2023-09-19T00:20:36;98783.84;;;18.41;75.84
9091;BME280;4581;42.416;25.598;2023-09-19T00:23:04;98778.19;;;18.36;76.00
9091;BME280;4581;42.416;25.598;2023-09-19T00:25:31;98777.16;;;18.30;76.14
9091;BME280;4581;42.416;25.598;2023-09-19T00:27:59;98792.69;;;18.30;76.79
9091;BME280;4581;42.416;25.598;2023-09-19T00:30:25;98788.97;;;18.24;77.56
9091;BME280;4581;42.416;25.598;2023-09-19T00:32:52;98785.19;;;18.25;77.59
9091;BME280;4581;42.416;25.598;2023-09-19T00:35:20;98792.94;;;18.28;77.62
9091;BME280;4581;42.416;25.598;2023-09-19T00:37:46;98790.66;;;18.25;77.95
9091;BME280;4581;42.416;25.598;2023-09-19T00:40:13;98781.38;;;18.33;78.53
9091;BME280;4581;42.416;25.598;2023-09-19T00:42:47;98791.91;;;18.22;78.72
9091;BME280;4581;42.416;25.598;2023-09-19T00:45:15;98786.50;;;18.16;78.70
9091;BME280;4581;42.416;25.598;2023-09-19T00:47:48;98787.72;;;18.20;79.27
9091;BME280;4581;42.416;25.598;2023-09-19T00:50:20;98779.78;;;18.12;79.48
9091;BME280;4581;42.416;25.598;2023-09-19T00:52:49;98786.50;;;18.16;79.73
9091;BME280;4581;42.416;25.598;2023-09-19T00:55:17;98770.97;;;18.10;79.87
9091;BME280;4581;42.416;25.598;2023-09-19T00:57:47;98781.09;;;18.09;80.69
9091;BME280;4581;42.416;25.598;2023-09-19T01:00:17;98787.75;;;18.13;80.65
9091;BME280;4581;42.416;25.598;2023-09-19T01:02:46;98780.25;;;18.09;81.15
9091;BME280;4581;42.416;25.598;2023-09-19T01:05:13;98787.78;;;18.07;81.14
9091;BME280;4581;42.416;25.598;2023-09-19T01:07:40;98775.63;;;18.03;81.62
9091;BME280;4581;42.416;25.598;2023-09-19T01:10:16;98784.00;;;18.08;81.43
9091;BME280;4581;42.416;25.598;2023-09-19T01:20:50;98773.09;;;18.08;81.51
9091;BME280;4581;42.416;25.598;2023-09-19T01:23:39;98772.66;;;18.11;82.01
9091;BME280;4581;42.416;25.598;2023-09-19T01:29:44;98777.75;;;18.01;82.12
9091;BME280;4581;42.416;25.598;2023-09-19T01:32:18;98765.81;;;17.95;82.17
9091;BME280;4581;42.416;25.598;2023-09-19T01:34:51;98770.41;;;17.95;82.70
9091;BME280;4581;42.416;25.598;2023-09-19T01:37:20;98768.53;;;17.95;82.70
9091;BME280;4581;42.416;25.598;2023-09-19T01:40:01;98762.88;;;17.90;82.72
9091;BME280;4581;42.416;25.598;2023-09-19T01:42:41;98763.31;;;17.87;82.53
9091;BME280;4581;42.416;25.598;2023-09-19T01:45:27;98764.13;;;17.94;83.07
9091;BME280;4581;42.416;25.598;2023-09-19T01:48:16;98764.38;;;17.93;82.96
9091;BME280;4581;42.416;25.598;2023-09-19T01:53:33;98756.59;;;17.90;83.68
9091;BME280;4581;42.416;25.598;2023-09-19T01:56:05;98754.28;;;17.93;83.45
9091;BME280;4581;42.416;25.598;2023-09-19T01:58:42;98758.28;;;17.91;83.47
9091;BME280;4581;42.416;25.598;2023-09-19T02:01:13;98753.69;;;17.85;83.61
9091;BME280;4581;42.416;25.598;2023-09-19T02:03:43;98750.34;;;17.83;84.01
9091;BME280;4581;42.416;25.598;2023-09-19T02:06:15;98755.59;;;17.84;84.09
9091;BME280;4581;42.416;25.598;2023-09-19T02:08:42;98747.59;;;17.89;84.30
9091;BME280;4581;42.416;25.598;2023-09-19T02:11:09;98748.25;;;17.85;84.14
9091;BME280;4581;42.416;25.598;2023-09-19T02:13:35;98747.59;;;17.83;84.57
9091;BME280;4581;42.416;25.598;2023-09-19T02:16:02;98749.47;;;17.89;84.40
9091;BME280;4581;42.416;25.598;2023-09-19T02:18:30;98741.28;;;17.89;84.17
9091;BME280;4581;42.416;25.598;2023-09-19T02:20:57;98747.81;;;17.88;84.24
9091;BME280;4581;42.416;25.598;2023-09-19T02:23:25;98743.38;;;17.87;84.40
9091;BME280;4581;42.416;25.598;2023-09-19T02:25:56;98746.75;;;17.82;84.58
9091;BME280;4581;42.416;25.598;2023-09-19T02:28:27;98735.66;;;17.84;84.69
9091;BME280;4581;42.416;25.598;2023-09-19T02:30:59;98735.22;;;17.87;84.61
9091;BME280;4581;42.416;25.598;2023-09-19T02:33:26;98739.22;;;17.84;84.83
9091;BME280;4581;42.416;25.598;2023-09-19T02:35:56;98735.44;;;17.85;85.11
9091;BME280;4581;42.416;25.598;2023-09-19T02:38:26;98740.47;;;17.82;85.18
9091;BME280;4581;42.416;25.598;2023-09-19T02:40:52;98736.09;;;17.81;85.04
9091;BME280;4581;42.416;25.598;2023-09-19T02:43:22;98733.78;;;17.77;84.59
9091;BME280;4581;42.416;25.598;2023-09-19T02:45:50;98731.47;;;17.74;84.55
9091;BME280;4581;42.416;25.598;2023-09-19T02:48:16;98726.22;;;17.80;84.82
9091;BME280;4581;42.416;25.598;2023-09-19T02:50:45;98727.72;;;17.75;84.84
9091;BME280;4581;42.416;25.598;2023-09-19T02:53:12;98728.94;;;17.80;84.71
9091;BME280;4581;42.416;25.598;2023-09-19T02:55:39;98718.88;;;17.73;84.78
9091;BME280;4581;42.416;25.598;2023-09-19T02:58:09;98724.94;;;17.82;85.26
9091;BME280;4581;42.416;25.598;2023-09-19T03:00:41;98714.81;;;17.96;84.39
9091;BME280;4581;42.416;25.598;2023-09-19T03:03:09;98717.94;;;17.99;84.24
9091;BME280;4581;42.416;25.598;2023-09-19T03:05:36;98720.91;;;17.91;84.14
9091;BME280;4581;42.416;25.598;2023-09-19T03:08:05;98714.88;;;17.83;84.65
9091;BME280;4581;42.416;25.598;2023-09-19T03:10:32;98708.38;;;17.84;84.90
9091;BME280;4581;42.416;25.598;2023-09-19T03:12:59;98714.06;;;17.75;84.94
9091;BME280;4581;42.416;25.598;2023-09-19T03:15:26;98712.84;;;17.71;85.15
9091;BME280;4581;42.416;25.598;2023-09-19T03:17:53;98714.75;;;17.64;85.61
9091;BME280;4581;42.416;25.598;2023-09-19T03:20:20;98709.31;;;17.58;86.14
9091;BME280;4581;42.416;25.598;2023-09-19T03:22:47;98709.50;;;17.56;86.29
9091;BME280;4581;42.416;25.598;2023-09-19T03:25:16;98712.44;;;17.55;86.20
9091;BME280;4581;42.416;25.598;2023-09-19T03:27:44;98706.59;;;17.58;86.20
9091;BME280;4581;42.416;25.598;2023-09-19T03:30:10;98710.75;;;17.54;85.68
9091;BME280;4581;42.416;25.598;2023-09-19T03:32:47;98708.28;;;17.52;85.79
9091;BME280;4581;42.416;25.598;2023-09-19T03:35:17;98710.19;;;17.45;85.58
9091;BME280;4581;42.416;25.598;2023-09-19T03:37:44;98707.25;;;17.40;85.57
9091;BME280;4581;42.416;25.598;2023-09-19T03:40:11;98709.59;;;17.37;86.10
9091;BME280;4581;42.416;25.598;2023-09-19T03:42:39;98716.69;;;17.38;85.76
9091;BME280;4581;42.416;25.598;2023-09-19T03:45:09;98712.72;;;17.40;85.57
9091;BME280;4581;42.416;25.598;2023-09-19T03:47:40;98730.34;;;17.31;85.65
9091;BME280;4581;42.416;25.598;2023-09-19T03:50:08;98720.91;;;17.27;85.66
9091;BME280;4581;42.416;25.598;2023-09-19T03:52:37;98726.38;;;17.27;85.13
9091;BME280;4581;42.416;25.598;2023-09-19T03:55:04;98721.78;;;17.21;84.79
9091;BME280;4581;42.416;25.598;2023-09-19T03:57:31;98727.03;;;17.09;84.94
9091;BME280;4581;42.416;25.598;2023-09-19T03:59:57;98729.75;;;17.09;84.25
9091;BME280;4581;42.416;25.598;2023-09-19T04:02:24;98731.03;;;17.07;84.55
9091;BME280;4581;42.416;25.598;2023-09-19T04:04:52;98735.66;;;17.00;85.12
9091;BME280;4581;42.416;25.598;2023-09-19T04:07:19;98732.69;;;17.01;85.15
9091;BME280;4581;42.416;25.598;2023-09-19T04:09:49;98732.28;;;16.98;85.19
9091;BME280;4581;42.416;25.598;2023-09-19T04:12:16;98732.50;;;16.96;85.56
9091;BME280;4581;42.416;25.598;2023-09-19T04:14:45;98733.34;;;16.97;85.25
9091;BME280;4581;42.416;25.598;2023-09-19T04:17:11;98742.78;;;17.01;85.49
9091;BME280;4581;42.416;25.598;2023-09-19T04:19:38;98744.84;;;17.05;85.17
9091;BME280;4581;42.416;25.598;2023-09-19T04:22:05;98746.53;;;17.13;85.38
9091;BME280;4581;42.416;25.598;2023-09-19T04:24:32;98739.81;;;17.15;85.85
9091;BME280;4581;42.416;25.598;2023-09-19T04:26:59;98748.59;;;17.24;85.64
9091;BME280;4581;42.416;25.598;2023-09-19T04:29:26;98742.34;;;17.17;85.54
9091;BME280;4581;42.416;25.598;2023-09-19T04:31:56;98742.53;;;17.15;86.07
9091;BME280;4581;42.416;25.598;2023-09-19T04:34:26;98745.66;;;17.25;86.96
9091;BME280;4581;42.416;25.598;2023-09-19T04:36:54;98747.13;;;17.28;86.46
9091;BME280;4581;42.416;25.598;2023-09-19T04:39:22;98738.97;;;17.28;87.36
9091;BME280;4581;42.416;25.598;2023-09-19T04:41:53;98736.84;;;17.30;87.42
9091;BME280;4581;42.416;25.598;2023-09-19T04:44:19;98736.00;;;17.36;86.79
9091;BME280;4581;42.416;25.598;2023-09-19T04:46:46;98742.28;;;17.37;86.62
9091;BME280;4581;42.416;25.598;2023-09-19T04:49:13;98741.41;;;17.43;86.61
9091;BME280;4581;42.416;25.598;2023-09-19T04:51:40;98747.47;;;17.51;86.79
9091;BME280;4581;42.416;25.598;2023-09-19T04:54:07;98750.00;;;17.59;86.97
9091;BME280;4581;42.416;25.598;2023-09-19T04:56:34;98747.47;;;17.64;87.02
9091;BME280;4581;42.416;25.598;2023-09-19T04:59:00;98752.69;;;17.72;86.82
9091;BME280;4581;42.416;25.598;2023-09-19T05:01:27;98757.44;;;17.90;85.80
9091;BME280;4581;42.416;25.598;2023-09-19T05:03:54;98752.13;;;18.02;85.06
9091;BME280;4581;42.416;25.598;2023-09-19T05:06:21;98747.63;;;18.20;84.05
9091;BME280;4581;42.416;25.598;2023-09-19T05:08:48;98745.44;;;18.36;83.91
9091;BME280;4581;42.416;25.598;2023-09-19T05:11:19;98741.59;;;18.43;83.84
9091;BME280;4581;42.416;25.598;2023-09-19T05:13:51;98755.66;;;18.53;83.97
9091;BME280;4581;42.416;25.598;2023-09-19T05:16:19;98749.75;;;18.56;84.22
9091;BME280;4581;42.416;25.598;2023-09-19T05:18:46;98753.63;;;18.67;84.25
9091;BME280;4581;42.416;25.598;2023-09-19T05:21:13;98752.81;;;18.66;84.38
9091;BME280;4581;42.416;25.598;2023-09-19T05:23:40;98747.44;;;18.78;84.26
9091;BME280;4581;42.416;25.598;2023-09-19T05:26:08;98747.25;;;18.80;83.99
9091;BME280;4581;42.416;25.598;2023-09-19T05:28:35;98748.91;;;18.81;84.04
9091;BME280;4581;42.416;25.598;2023-09-19T05:31:02;98745.75;;;18.84;83.09
9091;BME280;4581;42.416;25.598;2023-09-19T05:33:29;98751.81;;;18.86;82.73
9091;BME280;4581;42.416;25.598;2023-09-19T05:35:58;98747.06;;;18.99;81.15
9091;BME280;4581;42.416;25.598;2023-09-19T05:38:26;98752.69;;;19.29;81.25
9091;BME280;4581;42.416;25.598;2023-09-19T05:40:54;98753.47;;;19.54;80.63
9091;BME280;4581;42.416;25.598;2023-09-19T05:43:21;98746.19;;;19.67;79.12
9091;BME280;4581;42.416;25.598;2023-09-19T05:45:48;98742.31;;;19.56;80.56
9091;BME280;4581;42.416;25.598;2023-09-19T05:48:19;98745.56;;;19.83;80.54
9091;BME280;4581;42.416;25.598;2023-09-19T05:50:47;98749.63;;;20.10;79.13
9091;BME280;4581;42.416;25.598;2023-09-19T05:53:15;98756.13;;;20.27;77.60
9091;BME280;4581;42.416;25.598;2023-09-19T05:55:42;98749.44;;;20.41;76.71
9091;BME280;4581;42.416;25.598;2023-09-19T05:58:10;98751.56;;;20.81;76.51
9091;BME280;4581;42.416;25.598;2023-09-19T06:00:37;98749.69;;;20.93;72.34
9091;BME280;4581;42.416;25.598;2023-09-19T06:03:05;98744.34;;;20.98;72.99
9091;BME280;4581;42.416;25.598;2023-09-19T06:05:33;98749.56;;;20.99;74.58
9091;BME280;4581;42.416;25.598;2023-09-19T06:08:00;98752.47;;;21.39;73.32
9091;BME280;4581;42.416;25.598;2023-09-19T06:10:27;98746.84;;;21.58;74.16
9091;BME280;4581;42.416;25.598;2023-09-19T06:12:54;98743.28;;;21.57;73.36
9091;BME280;4581;42.416;25.598;2023-09-19T06:15:21;98748.41;;;21.54;72.34
9091;BME280;4581;42.416;25.598;2023-09-19T06:17:54;98754.56;;;21.72;71.48
9091;BME280;4581;42.416;25.598;2023-09-19T06:20:22;98750.38;;;21.81;67.48
9091;BME280;4581;42.416;25.598;2023-09-19T06:22:49;98757.03;;;22.09;67.22
9091;BME280;4581;42.416;25.598;2023-09-19T06:25:17;98751.03;;;22.12;67.31
9091;BME280;4581;42.416;25.598;2023-09-19T06:27:47;98754.63;;;22.12;68.34
9091;BME280;4581;42.416;25.598;2023-09-19T06:30:14;98752.91;;;22.23;69.14
9091;BME280;4581;42.416;25.598;2023-09-19T06:32:41;98750.59;;;22.31;69.11
9091;BME280;4581;42.416;25.598;2023-09-19T06:35:15;98760.31;;;22.51;65.76
9091;BME280;4581;42.416;25.598;2023-09-19T06:37:42;98760.06;;;22.52;64.32
9091;BME280;4581;42.416;25.598;2023-09-19T06:40:11;98759.50;;;22.67;63.26
9091;BME280;4581;42.416;25.598;2023-09-19T06:42:41;98752.06;;;22.67;63.93
9091;BME280;4581;42.416;25.598;2023-09-19T06:45:09;98754.75;;;22.62;64.99
9091;BME280;4581;42.416;25.598;2023-09-19T06:47:38;98755.66;;;22.68;63.34
9091;BME280;4581;42.416;25.598;2023-09-19T06:50:05;98749.22;;;22.74;63.51
9091;BME280;4581;42.416;25.598;2023-09-19T06:52:35;98758.72;;;22.83;64.87
9091;BME280;4581;42.416;25.598;2023-09-19T06:55:02;98753.41;;;22.93;63.65
9091;BME280;4581;42.416;25.598;2023-09-19T06:57:32;98762.06;;;23.02;62.75
9091;BME280;4581;42.416;25.598;2023-09-19T06:59:59;98763.47;;;23.04;59.70
9091;BME280;4581;42.416;25.598;2023-09-19T07:02:27;98767.25;;;22.98;62.69
9091;BME280;4581;42.416;25.598;2023-09-19T07:04:54;98749.22;;;23.07;60.08
9091;BME280;4581;42.416;25.598;2023-09-19T07:07:21;98756.47;;;23.13;62.58
9091;BME280;4581;42.416;25.598;2023-09-19T07:09:48;98750.03;;;23.24;58.86
9091;BME280;4581;42.416;25.598;2023-09-19T07:12:15;98745.19;;;23.48;56.88
9091;BME280;4581;42.416;25.598;2023-09-19T07:14:42;98749.03;;;23.47;56.58
9091;BME280;4581;42.416;25.598;2023-09-19T07:17:08;98747.44;;;23.51;52.44
9091;BME280;4581;42.416;25.598;2023-09-19T07:19:35;98749.31;;;23.46;52.80
9091;BME280;4581;42.416;25.598;2023-09-19T07:22:02;98743.03;;;23.50;56.54
9091;BME280;4581;42.416;25.598;2023-09-19T07:24:29;98741.13;;;23.51;55.79
9091;BME280;4581;42.416;25.598;2023-09-19T07:26:55;98743.03;;;23.50;51.61
9091;BME280;4581;42.416;25.598;2023-09-19T07:29:22;98743.28;;;23.32;51.97
9091;BME280;4581;42.416;25.598;2023-09-19T07:31:49;98739.84;;;23.42;53.05
9091;BME280;4581;42.416;25.598;2023-09-19T07:34:16;98743.56;;;23.30;52.89
9091;BME280;4581;42.416;25.598;2023-09-19T07:36:43;98745.72;;;23.45;52.09
9091;BME280;4581;42.416;25.598;2023-09-19T07:39:10;98740.81;;;23.69;51.90
9091;BME280;4581;42.416;25.598;2023-09-19T07:41:48;98748.16;;;23.63;49.31
9091;BME280;4581;42.416;25.598;2023-09-19T07:44:36;98745.28;;;23.53;48.34
9091;BME280;4581;42.416;25.598;2023-09-19T07:47:03;98743.88;;;23.51;48.75
9091;BME280;4581;42.416;25.598;2023-09-19T07:49:30;98730.84;;;23.63;50.32
9091;BME280;4581;42.416;25.598;2023-09-19T07:51:56;98728.56;;;23.60;49.66
9091;BME280;4581;42.416;25.598;2023-09-19T07:54:23;98735.31;;;23.69;49.20
9091;BME280;4581;42.416;25.598;2023-09-19T07:56:50;98723.19;;;23.92;49.92
9091;BME280;4581;42.416;25.598;2023-09-19T07:59:17;98718.53;;;23.92;48.12
9091;BME280;4581;42.416;25.598;2023-09-19T08:01:44;98720.00;;;23.40;49.70
9091;BME280;4581;42.416;25.598;2023-09-19T08:04:11;98705.41;;;23.56;51.29
9091;BME280;4581;42.416;25.598;2023-09-19T08:06:38;98709.72;;;23.90;50.38
9091;BME280;4581;42.416;25.598;2023-09-19T08:09:05;98712.84;;;24.20;50.24
9091;BME280;4581;42.416;25.598;2023-09-19T08:11:35;98715.16;;;24.55;49.04
9091;BME280;4581;42.416;25.598;2023-09-19T08:14:02;98710.00;;;24.69;48.25
9091;BME280;4581;42.416;25.598;2023-09-19T08:16:29;98709.75;;;24.44;47.52
9091;BME280;4581;42.416;25.598;2023-09-19T08:18:56;98706.81;;;24.02;47.70
9091;BME280;4581;42.416;25.598;2023-09-19T08:21:23;98702.63;;;23.99;48.62
9091;BME280;4581;42.416;25.598;2023-09-19T08:23:50;98710.28;;;23.92;46.70
9091;BME280;4581;42.416;25.598;2023-09-19T08:26:17;98706.63;;;24.30;47.54
9091;BME280;4581;42.416;25.598;2023-09-19T08:28:44;98710.72;;;24.54;46.51
9091;BME280;4581;42.416;25.598;2023-09-19T08:31:10;98704.75;;;24.67;44.16
9091;BME280;4581;42.416;25.598;2023-09-19T08:33:37;98709.34;;;24.57;44.51
9091;BME280;4581;42.416;25.598;2023-09-19T08:36:06;98699.44;;;24.88;45.18
9091;BME280;4581;42.416;25.598;2023-09-19T08:38:35;98697.13;;;24.80;44.58
9091;BME280;4581;42.416;25.598;2023-09-19T08:41:06;98702.31;;;24.71;43.53
9091;BME280;4581;42.416;25.598;2023-09-19T08:43:34;98691.75;;;24.90;45.75
9091;BME280;4581;42.416;25.598;2023-09-19T08:46:11;98694.81;;;24.93;45.90
9091;BME280;4581;42.416;25.598;2023-09-19T08:48:46;98684.94;;;25.02;44.49
9091;BME280;4581;42.416;25.598;2023-09-19T08:54:08;98694.50;;;25.27;42.75
9091;BME280;4581;42.416;25.598;2023-09-19T08:56:36;98691.16;;;25.25;41.72
9091;BME280;4581;42.416;25.598;2023-09-19T08:59:06;98685.13;;;25.33;43.86
9091;BME280;4581;42.416;25.598;2023-09-19T09:01:38;98684.69;;;25.46;42.43
9091;BME280;4581;42.416;25.598;2023-09-19T09:04:09;98678.72;;;25.64;44.46
9091;BME280;4581;42.416;25.598;2023-09-19T09:06:42;98673.75;;;25.66;42.00
9091;BME280;4581;42.416;25.598;2023-09-19T09:09:10;98677.22;;;25.46;42.29
9091;BME280;4581;42.416;25.598;2023-09-19T09:11:38;98672.75;;;25.35;42.68
9091;BME280;4581;42.416;25.598;2023-09-19T09:14:09;98665.28;;;25.31;44.08
9091;BME280;4581;42.416;25.598;2023-09-19T09:16:36;98665.31;;;25.41;43.81
9091;BME280;4581;42.416;25.598;2023-09-19T09:19:04;98663.78;;;25.55;41.75
9091;BME280;4581;42.416;25.598;2023-09-19T09:21:31;98662.69;;;25.61;41.34
9091;BME280;4581;42.416;25.598;2023-09-19T09:24:27;98647.53;;;25.69;42.43
9091;BME280;4581;42.416;25.598;2023-09-19T09:26:56;98647.81;;;25.67;43.49
9091;BME280;4581;42.416;25.598;2023-09-19T09:29:41;98654.00;;;26.04;43.32
9091;BME280;4581;42.416;25.598;2023-09-19T09:35:01;98654.13;;;26.70;41.07
9091;BME280;4581;42.416;25.598;2023-09-19T09:37:28;98646.38;;;26.77;40.27
9091;BME280;4581;42.416;25.598;2023-09-19T09:40:02;98640.88;;;26.87;38.61
9091;BME280;4581;42.416;25.598;2023-09-19T09:42:41;98643.06;;;26.90;39.98
9091;BME280;4581;42.416;25.598;2023-09-19T09:47:46;98636.38;;;27.17;39.19
9091;BME280;4581;42.416;25.598;2023-09-19T09:50:34;98646.09;;;26.89;38.94
9091;BME280;4581;42.416;25.598;2023-09-19T09:53:25;98643.59;;;26.82;37.96
9091;BME280;4581;42.416;25.598;2023-09-19T09:55:59;98640.53;;;26.23;38.85
9091;BME280;4581;42.416;25.598;2023-09-19T09:58:37;98638.63;;;26.59;40.16
9091;BME280;4581;42.416;25.598;2023-09-19T10:01:04;98629.22;;;26.70;40.56
9091;BME280;4581;42.416;25.598;2023-09-19T10:03:42;98625.34;;;26.96;39.71
9091;BME280;4581;42.416;25.598;2023-09-19T10:06:17;98621.44;;;27.13;38.89
9091;BME280;4581;42.416;25.598;2023-09-19T10:11:32;98621.31;;;27.63;37.47
9091;BME280;4581;42.416;25.598;2023-09-19T10:14:00;98629.19;;;27.11;36.64
9091;BME280;4581;42.416;25.598;2023-09-19T10:16:34;98617.19;;;27.56;38.27
9091;BME280;4581;42.416;25.598;2023-09-19T10:19:07;98611.84;;;27.69;37.46
9091;BME280;4581;42.416;25.598;2023-09-19T10:21:36;98621.66;;;27.52;37.06
9091;BME280;4581;42.416;25.598;2023-09-19T10:24:03;98611.09;;;27.49;36.62
9091;BME280;4581;42.416;25.598;2023-09-19T10:26:36;98610.84;;;27.50;37.14
9091;BME280;4581;42.416;25.598;2023-09-19T10:29:06;98605.25;;;27.60;37.16
9091;BME280;4581;42.416;25.598;2023-09-19T10:31:35;98610.09;;;27.88;36.39
9091;BME280;4581;42.416;25.598;2023-09-19T10:34:08;98601.69;;;28.04;35.20
9091;BME280;4581;42.416;25.598;2023-09-19T10:36:36;98601.69;;;28.09;35.27
9091;BME280;4581;42.416;25.598;2023-09-19T10:39:05;98609.28;;;27.88;35.76
9091;BME280;4581;42.416;25.598;2023-09-19T10:41:34;98598.63;;;27.46;35.87
9091;BME280;4581;42.416;25.598;2023-09-19T10:44:04;98597.03;;;27.25;37.41
9091;BME280;4581;42.416;25.598;2023-09-19T10:46:36;98592.94;;;27.12;38.48
9091;BME280;4581;42.416;25.598;2023-09-19T10:49:05;98588.53;;;27.01;39.20
9091;BME280;4581;42.416;25.598;2023-09-19T10:51:40;98587.69;;;27.06;37.94
9091;BME280;4581;42.416;25.598;2023-09-19T10:54:11;98587.56;;;27.51;37.46
9091;BME280;4581;42.416;25.598;2023-09-19T10:56:46;98579.25;;;27.46;39.00
9091;BME280;4581;42.416;25.598;2023-09-19T10:59:16;98577.50;;;27.70;35.92
9091;BME280;4581;42.416;25.598;2023-09-19T11:01:54;98577.19;;;28.21;36.50
9091;BME280;4581;42.416;25.598;2023-09-19T11:07:11;98565.38;;;27.46;36.68
9091;BME280;4581;42.416;25.598;2023-09-19T11:09:52;98563.59;;;27.80;37.62
9091;BME280;4581;42.416;25.598;2023-09-19T11:15:02;98566.38;;;28.53;35.26
9091;BME280;4581;42.416;25.598;2023-09-19T11:17:35;98561.50;;;29.03;36.15
9091;BME280;4581;42.416;25.598;2023-09-19T11:30:46;98549.09;;;29.19;33.50
9091;BME280;4581;42.416;25.598;2023-09-19T11:33:17;98537.59;;;29.31;33.73
9091;BME280;4581;42.416;25.598;2023-09-19T11:36:02;98531.97;;;29.12;33.22
9091;BME280;4581;42.416;25.598;2023-09-19T11:43:49;98530.22;;;29.63;32.82
9091;BME280;4581;42.416;25.598;2023-09-19T11:46:21;98516.78;;;30.08;32.19
9091;BME280;4581;42.416;25.598;2023-09-19T11:48:49;98506.47;;;30.59;33.35
9091;BME280;4581;42.416;25.598;2023-09-19T11:51:20;98516.59;;;30.83;31.94
9091;BME280;4581;42.416;25.598;2023-09-19T11:53:56;98513.59;;;32.55;29.44
9091;BME280;4581;42.416;25.598;2023-09-19T11:56:26;98507.25;;;35.05;27.49
9091;BME280;4581;42.416;25.598;2023-09-19T11:58:58;98523.81;;;37.38;24.87
9091;BME280;4581;42.416;25.598;2023-09-19T12:01:31;98516.94;;;39.58;22.44
9091;BME280;4581;42.416;25.598;2023-09-19T12:04:02;98509.66;;;39.26;21.71
9091;BME280;4581;42.416;25.598;2023-09-19T12:06:31;98500.00;;;37.72;24.04
9091;BME280;4581;42.416;25.598;2023-09-19T12:08:59;98500.94;;;38.56;21.99
9091;BME280;4581;42.416;25.598;2023-09-19T12:11:29;98499.75;;;38.57;22.71
9091;BME280;4581;42.416;25.598;2023-09-19T12:14:00;98505.22;;;38.38;23.46
9091;BME280;4581;42.416;25.598;2023-09-19T12:16:28;98492.25;;;37.69;22.04
9091;BME280;4581;42.416;25.598;2023-09-19T12:18:57;98503.00;;;36.82;23.23
9091;BME280;4581;42.416;25.598;2023-09-19T12:21:29;98487.16;;;36.45;23.23
9091;BME280;4581;42.416;25.598;2023-09-19T12:24:06;98485.00;;;36.09;24.61
9091;BME280;4581;42.416;25.598;2023-09-19T12:26:42;98481.56;;;34.14;26.05
9091;BME280;4581;42.416;25.598;2023-09-19T12:29:17;98476.63;;;32.49;27.77
9091;BME280;4581;42.416;25.598;2023-09-19T12:31:52;98478.22;;;31.34;28.97
9091;BME280;4581;42.416;25.598;2023-09-19T12:34:26;98460.94;;;30.37;31.35
9091;BME280;4581;42.416;25.598;2023-09-19T12:37:07;98466.22;;;29.68;31.13
9091;BME280;4581;42.416;25.598;2023-09-19T12:39:43;98459.28;;;29.28;32.70
9091;BME280;4581;42.416;25.598;2023-09-19T12:42:20;98455.31;;;28.63;32.98
9091;BME280;4581;42.416;25.598;2023-09-19T12:44:51;98457.91;;;27.92;33.92
9091;BME280;4581;42.416;25.598;2023-09-19T12:47:29;98447.06;;;27.57;35.32
9091;BME280;4581;42.416;25.598;2023-09-19T12:50:10;98448.91;;;27.27;35.46
9091;BME280;4581;42.416;25.598;2023-09-19T12:52:50;98445.59;;;27.20;37.60
9091;BME280;4581;42.416;25.598;2023-09-19T12:55:28;98440.09;;;27.15;35.58
9091;BME280;4581;42.416;25.598;2023-09-19T12:58:14;98442.91;;;27.05;38.41
9091;BME280;4581;42.416;25.598;2023-09-19T13:00:46;98430.13;;;27.14;37.19
9091;BME280;4581;42.416;25.598;2023-09-19T13:03:28;98432.59;;;27.21;37.82
9091;BME280;4581;42.416;25.598;2023-09-19T13:05:59;98432.53;;;27.36;35.64
9091;BME280;4581;42.416;25.598;2023-09-19T13:08:29;98434.66;;;27.49;37.67
9091;BME280;4581;42.416;25.598;2023-09-19T13:11:03;98434.72;;;27.34;38.45
9091;BME280;4581;42.416;25.598;2023-09-19T13:13:33;98423.94;;;27.32;37.10
9091;BME280;4581;42.416;25.598;2023-09-19T13:16:03;98425.63;;;27.28;38.37
9091;BME280;4581;42.416;25.598;2023-09-19T13:18:44;98424.75;;;27.38;36.31
9091;BME280;4581;42.416;25.598;2023-09-19T13:21:12;98408.69;;;27.35;37.07
9091;BME280;4581;42.416;25.598;2023-09-19T13:23:53;98427.44;;;27.53;37.37
9091;BME280;4581;42.416;25.598;2023-09-19T13:26:26;98421.38;;;27.51;35.96
9091;BME280;4581;42.416;25.598;2023-09-19T13:28:54;98415.72;;;27.61;38.05
9091;BME280;4581;42.416;25.598;2023-09-19T13:31:21;98413.50;;;27.63;35.89
9091;BME280;4581;42.416;25.598;2023-09-19T13:33:49;98420.25;;;27.52;36.13
9091;BME280;4581;42.416;25.598;2023-09-19T13:36:16;98415.28;;;27.44;37.67
9091;BME280;4581;42.416;25.598;2023-09-19T13:38:45;98421.94;;;27.48;36.46
9091;BME280;4581;42.416;25.598;2023-09-19T13:41:15;98424.25;;;27.26;37.65
9091;BME280;4581;42.416;25.598;2023-09-19T13:43:43;98416.03;;;27.11;37.71
9091;BME280;4581;42.416;25.598;2023-09-19T13:46:14;98417.16;;;27.10;38.17
9091;BME280;4581;42.416;25.598;2023-09-19T13:48:43;98417.16;;;27.10;36.67
9091;BME280;4581;42.416;25.598;2023-09-19T13:51:09;98419.81;;;27.25;36.99
9091;BME280;4581;42.416;25.598;2023-09-19T13:53:37;98415.94;;;27.26;37.00
9091;BME280;4581;42.416;25.598;2023-09-19T13:56:03;98420.88;;;27.34;35.97
9091;BME280;4581;42.416;25.598;2023-09-19T13:58:30;98411.13;;;27.52;36.11
9091;BME280;4581;42.416;25.598;2023-09-19T14:01:00;98413.06;;;27.51;37.09
9091;BME280;4581;42.416;25.598;2023-09-19T14:03:27;98406.69;;;27.40;37.49
9091;BME280;4581;42.416;25.598;2023-09-19T14:05:55;98403.75;;;27.32;37.45
9091;BME280;4581;42.416;25.598;2023-09-19T14:08:21;98401.63;;;27.14;37.11
9091;BME280;4581;42.416;25.598;2023-09-19T14:10:50;98394.47;;;27.08;37.63